Ilo, Peru
Current Conditions -  °F | °C
As of 7:00 AM on Friday 24 Oct 2014 (Local Time) from SPTN Reporting Station
Scattered Clouds Scattered Clouds  
Wind Chill: 63°   Ceiling: Unl
Heat Index: 63°   Visibility: 6mi
Dew Point: 55°   Wind: 3mph
Humidity: 77%   Direction: 250°WSW
Pressure: 29.91"   Gusts: NA
Location:  17.64°S, 71.34°W
Report Text: SPTN 241200Z 25003KT 210V320 9999 SCT023 17/13 Q1013 RMK PP000
Loading
Personal Weather Stations






























Interactive Weather Map
Tropical Storm Tracking
New forecast layout! Learn more

10-Day Weather Forecast

Advertisements
Track Severe Weather on mobile